Terminal Aerodrome Forecast
Issued by NWS Charleston, WV

Current Version | Previous Version | Graphics & Text | Print | Product List | Glossary On
Versions: 1 2 3 4 5 6 7 8 9 10 11 12 13 14 15 16 17 18 19 20 21 22 23
000
FTUS41 KRLX 272300 RRA
TAFPKB
TAF
KPKB 272343Z 2800/2824 00000KT P6SM BKN045
     FM280100 00000KT P6SM BKN035
     FM280500 00000KT P6SM SCT035
     FM280700 00000KT 5SM BR SCT025
     FM280900 00000KT 2SM BR SKC
     FM281000 00000KT 1/2SM FG VV001
     FM281200 VRB03KT 3SM BR BKN001
     FM281300 VRB03KT P6SM SKC=

USA.gov is the U.S. government's official web portal to all federal, state and local government web resources and services.